createdAt,value
2022-09-15T00:01:35.330Z,18.40
2022-09-15T00:04:14.001Z,18.47
2022-09-15T00:06:42.345Z,19.93
2022-09-15T00:09:17.002Z,20.03
2022-09-15T00:11:45.510Z,19.37
2022-09-15T00:14:21.000Z,20.03
2022-09-15T00:16:49.503Z,20.40
2022-09-15T00:19:25.838Z,19.57
2022-09-15T00:22:01.257Z,21.57
2022-09-15T00:24:45.142Z,17.43
2022-09-15T00:27:13.598Z,18.53
2022-09-15T00:29:48.884Z,16.73
2022-09-15T00:32:17.704Z,18.20
2022-09-15T00:34:55.007Z,17.53
2022-09-15T00:37:23.830Z,16.57
2022-09-15T00:40:01.516Z,17.90
2022-09-15T00:42:36.888Z,18.20
2022-09-15T00:45:10.214Z,16.73
2022-09-15T00:47:48.013Z,19.60
2022-09-15T00:50:20.245Z,19.67
2022-09-15T00:52:58.833Z,20.10
2022-09-15T00:55:30.959Z,21.30
2022-09-15T00:58:09.028Z,23.60
2022-09-15T01:00:37.762Z,23.07
2022-09-15T01:03:12.838Z,21.10
2022-09-15T01:05:46.981Z,22.63
2022-09-15T01:08:26.990Z,22.97
2022-09-15T01:10:58.121Z,23.13
2022-09-15T01:13:33.853Z,21.23
2022-09-15T01:16:13.065Z,20.53
2022-09-15T01:18:59.093Z,21.33
2022-09-15T01:21:46.361Z,20.13
2022-09-15T01:24:54.069Z,20.23
2022-09-15T01:27:43.203Z,18.27
2022-09-15T01:30:23.053Z,17.57
2022-09-15T01:33:14.953Z,17.57
2022-09-15T01:36:04.942Z,15.90
2022-09-15T01:38:41.881Z,15.63
2022-09-15T01:41:26.049Z,16.27
2022-09-15T01:44:02.600Z,16.37
2022-09-15T01:46:42.957Z,16.00
2022-09-15T01:49:15.863Z,16.87
2022-09-15T01:51:52.073Z,18.03
2022-09-15T01:54:24.083Z,16.50
2022-09-15T01:56:59.070Z,17.47
2022-09-15T01:59:27.585Z,18.50
2022-09-15T02:02:09.964Z,18.73
2022-09-15T02:04:41.602Z,18.70
2022-09-15T02:07:24.099Z,19.20
2022-09-15T02:10:00.940Z,19.63
2022-09-15T02:12:44.959Z,19.93
2022-09-15T02:15:16.326Z,20.90
2022-09-15T02:17:56.976Z,19.33
2022-09-15T02:20:34.563Z,18.30
2022-09-15T02:23:22.103Z,17.50
2022-09-15T02:25:54.102Z,18.23
2022-09-15T02:28:35.029Z,18.40
2022-09-15T02:31:05.448Z,16.67
2022-09-15T02:33:46.960Z,16.43
2022-09-15T02:36:20.094Z,15.70
2022-09-15T02:38:59.006Z,15.73
2022-09-15T02:41:28.445Z,15.43
2022-09-15T02:44:02.938Z,15.70
2022-09-15T02:46:31.816Z,14.83
2022-09-15T02:49:08.127Z,14.77
2022-09-15T02:51:36.640Z,15.03
2022-09-15T02:54:12.054Z,15.73
2022-09-15T02:56:43.260Z,15.63
2022-09-15T03:02:15.021Z,16.63
2022-09-15T03:04:51.170Z,15.53
2022-09-15T03:07:21.919Z,15.90
2022-09-15T03:09:57.168Z,15.87
2022-09-15T03:12:26.246Z,17.10
2022-09-15T03:15:01.166Z,17.00
2022-09-15T03:17:29.554Z,17.27
2022-09-15T03:20:07.048Z,17.03
2022-09-15T03:22:55.140Z,18.10
2022-09-15T03:25:29.997Z,17.90
2022-09-15T03:27:58.548Z,17.33
2022-09-15T03:30:33.208Z,17.93
2022-09-15T03:33:01.722Z,18.07
2022-09-15T03:35:38.200Z,17.00
2022-09-15T03:38:08.649Z,18.00
2022-09-15T03:40:44.257Z,19.60
2022-09-15T03:43:18.556Z,17.90
2022-09-15T03:45:56.873Z,18.77
2022-09-15T03:48:26.057Z,18.70
2022-09-15T03:51:03.042Z,18.67
2022-09-15T03:53:33.489Z,19.27
2022-09-15T03:56:16.238Z,18.43
2022-09-15T03:58:44.638Z,19.93
2022-09-15T04:01:20.206Z,19.47
2022-09-15T04:03:51.357Z,20.27
2022-09-15T04:06:31.428Z,19.63
2022-09-15T04:09:00.587Z,19.90
2022-09-15T04:11:36.068Z,19.00
2022-09-15T04:14:04.787Z,19.53
2022-09-15T04:16:40.218Z,19.33
2022-09-15T04:19:09.006Z,20.13
2022-09-15T04:21:45.082Z,19.77
2022-09-15T04:24:13.749Z,19.20
2022-09-15T04:26:48.195Z,20.23
2022-09-15T04:29:17.862Z,20.03
2022-09-15T04:31:53.272Z,18.80
2022-09-15T04:34:21.783Z,18.97
2022-09-15T04:36:59.042Z,20.30
2022-09-15T04:39:27.420Z,19.13
2022-09-15T04:42:02.091Z,20.00
2022-09-15T04:44:30.582Z,19.37
2022-09-15T04:47:06.111Z,19.13
2022-09-15T04:49:34.550Z,19.53
2022-09-15T04:52:12.072Z,19.00
2022-09-15T04:54:40.421Z,19.27
2022-09-15T04:57:16.117Z,19.23
2022-09-15T04:59:44.767Z,18.70
2022-09-15T05:02:20.211Z,18.40
2022-09-15T05:04:51.614Z,18.47
2022-09-15T05:07:28.103Z,18.43
2022-09-15T05:10:03.065Z,19.20
2022-09-15T05:12:31.495Z,18.77
2022-09-15T05:15:06.071Z,19.33
2022-09-15T05:17:34.861Z,19.23
2022-09-15T05:20:11.257Z,19.87
2022-09-15T05:23:01.066Z,18.57
2022-09-15T05:25:37.257Z,20.63
2022-09-15T05:28:05.837Z,20.53
2022-09-15T05:30:52.345Z,20.20
2022-09-15T05:33:21.334Z,20.73
2022-09-15T05:36:00.147Z,19.73
2022-09-15T05:38:31.821Z,20.87
2022-09-15T05:41:11.089Z,20.70
2022-09-15T05:43:40.889Z,19.77
2022-09-15T05:46:17.175Z,21.37
2022-09-15T05:48:46.983Z,21.50
2022-09-15T05:51:22.163Z,20.90
2022-09-15T05:53:52.131Z,19.90
2022-09-15T05:56:28.119Z,21.13
2022-09-15T05:58:57.301Z,22.23
2022-09-15T06:01:34.223Z,21.63
2022-09-15T06:04:05.050Z,21.43
2022-09-15T06:06:40.133Z,21.93
2022-09-15T06:09:10.145Z,20.10
2022-09-15T06:11:45.220Z,21.80
2022-09-15T06:14:15.024Z,21.13
2022-09-15T06:17:00.155Z,21.13
2022-09-15T06:19:28.604Z,21.03
2022-09-15T06:22:03.126Z,21.30
2022-09-15T06:24:40.004Z,21.00
2022-09-15T06:27:15.199Z,21.93
2022-09-15T06:29:43.717Z,21.43
2022-09-15T06:32:18.206Z,21.23
2022-09-15T06:34:46.650Z,19.73
2022-09-15T06:37:22.205Z,21.47
2022-09-15T06:39:52.341Z,21.23
2022-09-15T06:42:27.209Z,19.77
2022-09-15T06:44:56.615Z,20.23
2022-09-15T06:47:31.211Z,20.07
2022-09-15T06:50:10.682Z,21.27
2022-09-15T06:52:45.350Z,20.47
2022-09-15T06:55:15.158Z,19.30
2022-09-15T06:57:50.134Z,19.37
2022-09-15T07:00:20.408Z,19.63
2022-09-15T07:02:57.224Z,20.07
2022-09-15T07:05:25.866Z,19.40
2022-09-15T07:08:01.364Z,19.33
2022-09-15T07:10:31.398Z,19.67
2022-09-15T07:13:08.235Z,18.10
2022-09-15T07:15:36.906Z,18.33
2022-09-15T07:18:12.198Z,18.03
2022-09-15T07:20:42.107Z,17.93
2022-09-15T07:23:17.362Z,18.37
2022-09-15T07:25:47.475Z,18.03
2022-09-15T07:28:23.317Z,19.37
2022-09-15T07:30:52.656Z,17.87
2022-09-15T07:33:27.254Z,18.90
2022-09-15T07:35:55.726Z,18.93
2022-09-15T07:38:31.374Z,18.23
2022-09-15T07:41:06.391Z,17.60
2022-09-15T07:43:41.404Z,17.97
2022-09-15T07:46:09.981Z,17.43
2022-09-15T07:48:45.288Z,17.63
2022-09-15T07:51:14.416Z,18.80
2022-09-15T07:53:49.225Z,17.97
2022-09-15T07:56:19.745Z,18.07
2022-09-15T07:58:55.594Z,17.97
2022-09-15T08:01:24.600Z,18.70
2022-09-15T08:04:00.412Z,16.83
2022-09-15T08:06:29.618Z,17.97
2022-09-15T08:09:04.615Z,16.70
2022-09-15T08:11:34.753Z,15.90
2022-09-15T08:14:10.242Z,18.50
2022-09-15T08:16:39.039Z,17.13
2022-09-15T08:19:15.488Z,17.07
2022-09-15T08:21:43.983Z,16.23
2022-09-15T08:24:25.320Z,16.13
2022-09-15T08:26:55.451Z,15.80
2022-09-15T08:29:30.425Z,14.50
2022-09-15T08:31:59.489Z,14.63
2022-09-15T08:34:36.231Z,13.90
2022-09-15T08:37:04.593Z,14.87
2022-09-15T08:39:39.433Z,13.93
2022-09-15T08:42:16.404Z,15.67
2022-09-15T08:44:56.425Z,14.70
2022-09-15T08:47:28.884Z,15.47
2022-09-15T08:50:09.281Z,14.97
2022-09-15T08:52:49.282Z,14.93
2022-09-15T08:55:23.878Z,14.83
2022-09-15T08:58:02.251Z,14.83
2022-09-15T09:00:31.349Z,14.83
2022-09-15T09:03:35.288Z,18.77
2022-09-15T09:06:14.725Z,13.13
2022-09-15T09:09:06.477Z,11.37
2022-09-15T09:11:50.894Z,10.93
2022-09-15T09:17:45.458Z,9.63
2022-09-15T09:20:37.478Z,9.73
2022-09-15T09:23:30.381Z,6.40
2022-09-15T09:26:10.544Z,5.90
2022-09-15T09:28:43.234Z,5.00
2022-09-15T09:31:25.419Z,4.77
2022-09-15T09:33:58.479Z,3.10
2022-09-15T09:36:34.510Z,2.90
2022-09-15T09:39:05.382Z,2.87
2022-09-15T09:41:54.384Z,2.37
2022-09-15T09:44:31.900Z,1.20
2022-09-15T09:47:10.336Z,2.00
2022-09-15T09:49:44.016Z,1.73
2022-09-15T09:52:22.017Z,1.53
2022-09-15T09:55:02.182Z,1.90
2022-09-15T09:57:40.864Z,1.20
2022-09-15T10:00:32.133Z,1.30
2022-09-15T10:03:19.360Z,1.90
2022-09-15T10:06:02.187Z,1.50
2022-09-15T10:08:37.410Z,1.70
2022-09-15T10:11:07.401Z,1.73
2022-09-15T10:13:43.544Z,2.00
2022-09-15T10:16:12.055Z,1.53
2022-09-15T10:18:53.433Z,2.40
2022-09-15T10:21:25.235Z,2.30
2022-09-15T10:24:43.525Z,1.90
2022-09-15T10:27:27.329Z,1.70
2022-09-15T10:30:02.429Z,1.33
2022-09-15T10:32:32.390Z,1.77
2022-09-15T10:35:12.541Z,1.93
2022-09-15T10:37:57.871Z,1.30
2022-09-15T10:40:47.366Z,2.10
2022-09-15T10:43:30.169Z,1.43
2022-09-15T10:46:12.458Z,1.70
2022-09-15T10:49:01.873Z,1.80
2022-09-15T10:51:48.391Z,1.60
2022-09-15T10:54:36.096Z,1.40
2022-09-15T10:57:24.483Z,1.47
2022-09-15T11:00:00.836Z,1.77
2022-09-15T11:02:56.414Z,1.57
2022-09-15T11:05:40.878Z,1.83
2022-09-15T11:08:39.590Z,1.70
2022-09-15T11:11:14.224Z,1.40
2022-09-15T11:13:57.569Z,1.30
2022-09-15T11:16:44.878Z,1.30
2022-09-15T11:22:39.583Z,1.20
2022-09-15T11:25:29.439Z,1.47
2022-09-15T11:28:03.001Z,1.63
2022-09-15T11:30:47.073Z,1.57
2022-09-15T11:33:22.021Z,1.40
2022-09-15T11:36:03.616Z,1.27
2022-09-15T11:38:43.148Z,1.47
2022-09-15T11:41:27.403Z,1.50
2022-09-15T11:44:16.630Z,1.40
2022-09-15T11:47:01.740Z,1.60
2022-09-15T11:49:43.642Z,1.20
2022-09-15T11:52:44.787Z,1.60
2022-09-15T11:55:31.644Z,1.97
2022-09-15T11:58:21.781Z,2.00
2022-09-15T12:01:04.744Z,1.93
2022-09-15T12:03:39.024Z,1.73
2022-09-15T12:06:20.797Z,1.90
2022-09-15T12:08:58.383Z,2.07
2022-09-15T12:12:12.615Z,2.13
2022-09-15T12:14:45.127Z,2.33
2022-09-15T12:17:26.680Z,2.20
2022-09-15T12:20:01.692Z,2.47
2022-09-15T12:22:42.686Z,1.90
2022-09-15T12:25:23.350Z,1.80
2022-09-15T12:28:43.540Z,2.10
2022-09-15T12:31:30.310Z,2.10
2022-09-15T12:34:08.559Z,1.83
2022-09-15T12:36:45.891Z,1.30
2022-09-15T12:39:37.479Z,1.60
2022-09-15T12:42:16.602Z,1.40
2022-09-15T12:44:54.563Z,1.47
2022-09-15T12:47:33.010Z,1.10
2022-09-15T12:50:36.522Z,1.20
2022-09-15T12:53:15.528Z,1.20
2022-09-15T12:55:58.677Z,1.40
2022-09-15T12:58:38.013Z,1.30
2022-09-15T13:01:55.820Z,1.20
2022-09-15T13:05:04.552Z,1.43
2022-09-15T13:07:54.235Z,1.17
2022-09-15T13:10:42.670Z,1.40
2022-09-15T13:13:24.034Z,1.27
2022-09-15T13:16:01.579Z,1.10
2022-09-15T13:18:32.203Z,1.40
2022-09-15T13:21:14.663Z,1.27
2022-09-15T13:23:54.009Z,1.17
2022-09-15T13:26:32.596Z,1.20
2022-09-15T13:29:01.701Z,1.20
2022-09-15T13:31:45.739Z,1.00
2022-09-15T13:35:08.627Z,1.67
2022-09-15T13:38:16.754Z,1.27
2022-09-15T13:41:25.718Z,1.20
2022-09-15T13:44:27.625Z,1.27
2022-09-15T13:47:12.427Z,1.10
2022-09-15T13:49:56.545Z,1.10
2022-09-15T13:52:50.701Z,0.93
2022-09-15T13:55:28.579Z,1.10
2022-09-15T14:01:09.626Z,1.20
2022-09-15T14:03:43.727Z,1.00
2022-09-15T14:06:22.613Z,1.27
2022-09-15T14:08:55.047Z,1.37
2022-09-15T14:11:34.599Z,1.10
2022-09-15T14:14:03.551Z,1.33
2022-09-15T14:16:41.663Z,1.40
2022-09-15T14:19:41.521Z,1.20
2022-09-15T14:22:32.587Z,1.57
2022-09-15T14:25:16.629Z,1.50
2022-09-15T14:27:53.578Z,1.50
2022-09-15T14:30:25.309Z,1.40
2022-09-15T14:33:02.638Z,1.23
2022-09-15T14:35:36.671Z,1.60
2022-09-15T14:38:11.653Z,1.13
2022-09-15T14:40:41.660Z,1.60
2022-09-15T14:43:33.716Z,1.40
2022-09-15T14:46:12.321Z,1.13
2022-09-15T14:48:47.735Z,1.90
2022-09-15T14:51:23.117Z,1.30
2022-09-15T14:54:00.810Z,1.30
2022-09-15T14:56:35.166Z,1.60
2022-09-15T14:59:14.616Z,1.50
2022-09-15T15:01:53.507Z,1.50
2022-09-15T15:04:34.710Z,1.27
2022-09-15T15:07:08.573Z,1.37
2022-09-15T15:09:49.730Z,0.90
2022-09-15T15:12:28.501Z,1.10
2022-09-15T15:15:04.794Z,1.20
2022-09-15T15:17:37.963Z,1.40
2022-09-15T15:20:25.621Z,1.50
2022-09-15T15:23:21.145Z,1.20
2022-09-15T15:26:22.795Z,1.40
2022-09-15T15:28:52.381Z,1.30
2022-09-15T15:31:29.820Z,0.90
2022-09-15T15:34:05.129Z,1.37
2022-09-15T15:36:42.653Z,1.37
2022-09-15T15:39:24.795Z,1.27
2022-09-15T15:42:10.820Z,1.43
2022-09-15T15:44:59.792Z,1.43
2022-09-15T15:47:37.827Z,1.40
2022-09-15T15:50:14.469Z,1.20
2022-09-15T15:52:50.649Z,1.37
2022-09-15T15:55:20.932Z,1.20
2022-09-15T15:57:58.662Z,1.20
2022-09-15T16:00:34.498Z,1.37
2022-09-15T16:03:09.742Z,1.23
2022-09-15T16:05:39.090Z,1.27
2022-09-15T16:08:17.754Z,1.20
2022-09-15T16:10:49.822Z,1.23
2022-09-15T16:13:29.700Z,1.23
2022-09-15T16:16:01.884Z,1.37
2022-09-15T16:18:36.869Z,1.27
2022-09-15T16:21:06.068Z,1.23
2022-09-15T16:23:41.040Z,1.67
2022-09-15T16:26:16.921Z,1.30
2022-09-15T16:28:51.844Z,1.10
2022-09-15T16:31:21.974Z,1.20
2022-09-15T16:33:57.847Z,1.40
2022-09-15T16:36:27.939Z,1.23
2022-09-15T16:39:02.890Z,1.30
2022-09-15T16:41:33.061Z,1.20
2022-09-15T16:44:12.714Z,1.10
2022-09-15T16:46:42.595Z,1.47
2022-09-15T16:49:17.781Z,1.40
2022-09-15T16:51:46.654Z,4.17
2022-09-15T16:54:24.837Z,2.70
2022-09-15T16:56:53.353Z,3.37
2022-09-15T16:59:28.801Z,1.43
2022-09-15T17:01:59.311Z,1.43
2022-09-15T17:04:34.772Z,1.40
2022-09-15T17:07:09.731Z,1.17
2022-09-15T17:09:38.753Z,1.43
2022-09-15T17:14:47.265Z,1.37
2022-09-15T17:17:32.687Z,1.60
2022-09-15T17:20:00.852Z,1.40
2022-09-15T17:22:35.755Z,1.50
2022-09-15T17:25:44.723Z,1.03
2022-09-15T17:28:19.780Z,1.33
2022-09-15T17:30:49.376Z,1.30
2022-09-15T17:33:27.958Z,1.27
2022-09-15T17:35:56.381Z,1.30
2022-09-15T17:38:31.893Z,1.13
2022-09-15T17:41:00.510Z,1.37
2022-09-15T17:43:38.956Z,1.40
2022-09-15T17:46:09.007Z,1.33
2022-09-15T17:48:45.838Z,2.87
2022-09-15T17:51:17.182Z,1.37
2022-09-15T17:53:54.149Z,1.50
2022-09-15T17:56:22.813Z,1.27
2022-09-15T17:58:57.850Z,1.47
2022-09-15T18:01:26.467Z,1.50
2022-09-15T18:04:02.935Z,1.27
2022-09-15T18:06:31.500Z,1.80
2022-09-15T18:09:06.887Z,1.70
2022-09-15T18:12:03.024Z,1.40
2022-09-15T18:14:37.862Z,1.57
2022-09-15T18:17:09.024Z,1.40
2022-09-15T18:19:46.916Z,1.40
2022-09-15T18:22:16.238Z,1.20
2022-09-15T18:24:51.777Z,1.57
2022-09-15T18:27:20.182Z,1.20
2022-09-15T18:29:54.880Z,1.40
2022-09-15T18:32:23.484Z,1.50
2022-09-15T18:34:59.805Z,1.40
2022-09-15T18:37:30.729Z,1.30
2022-09-15T18:40:05.931Z,1.60
2022-09-15T18:42:37.875Z,1.60
2022-09-15T18:45:14.896Z,1.30
2022-09-15T18:47:53.850Z,1.50
2022-09-15T18:50:25.805Z,1.70
2022-09-15T18:53:00.903Z,1.37
2022-09-15T18:55:31.676Z,1.60
2022-09-15T18:58:11.429Z,1.60
2022-09-15T19:00:40.819Z,1.67
2022-09-15T19:03:17.049Z,1.30
2022-09-15T19:05:46.924Z,1.30
2022-09-15T19:08:22.026Z,1.47
2022-09-15T19:10:58.378Z,1.60
2022-09-15T19:13:33.912Z,1.50
2022-09-15T19:16:04.677Z,1.50
2022-09-15T19:18:39.921Z,1.40
2022-09-15T19:21:13.301Z,1.70
2022-09-15T19:23:47.940Z,1.60
2022-09-15T19:26:25.869Z,1.77
2022-09-15T19:29:01.022Z,1.53
2022-09-15T19:31:29.395Z,1.40
2022-09-15T19:34:05.109Z,1.40
2022-09-15T19:36:35.306Z,1.10
2022-09-15T19:39:10.970Z,1.50
2022-09-15T19:41:39.562Z,1.40
2022-09-15T19:44:15.038Z,1.60
2022-09-15T19:46:43.711Z,1.67
2022-09-15T19:49:18.075Z,1.60
2022-09-15T19:51:53.180Z,1.60
2022-09-15T19:54:27.899Z,1.53
2022-09-15T19:56:56.855Z,1.40
2022-09-15T19:59:34.735Z,1.57
2022-09-15T20:02:03.528Z,1.20
2022-09-15T20:04:39.087Z,2.00
2022-09-15T20:07:12.736Z,1.60
2022-09-15T20:09:47.967Z,1.60
2022-09-15T20:12:16.861Z,1.60
2022-09-15T20:14:51.963Z,1.60
2022-09-15T20:17:20.639Z,1.60
2022-09-15T20:19:56.104Z,1.40
2022-09-15T20:22:26.201Z,1.63
2022-09-15T20:25:07.925Z,1.50
2022-09-15T20:27:44.315Z,1.50
2022-09-15T20:30:20.979Z,1.83
2022-09-15T20:32:49.418Z,1.70
2022-09-15T20:35:25.095Z,1.47
2022-09-15T20:37:55.060Z,1.60
2022-09-15T20:40:29.971Z,1.43
2022-09-15T20:42:59.027Z,1.90
2022-09-15T20:45:37.103Z,1.67
2022-09-15T20:48:05.913Z,1.80
2022-09-15T20:50:51.903Z,1.50
2022-09-15T20:53:21.851Z,1.57
2022-09-15T20:55:58.046Z,1.50
2022-09-15T20:58:27.457Z,1.50
2022-09-15T21:01:12.249Z,1.40
2022-09-15T21:03:43.470Z,1.63
2022-09-15T21:06:20.137Z,1.30
2022-09-15T21:08:50.708Z,1.83
2022-09-15T21:11:28.134Z,1.87
2022-09-15T21:13:57.457Z,2.00
2022-09-15T21:16:36.121Z,1.60
2022-09-15T21:19:04.698Z,1.40
2022-09-15T21:21:41.005Z,1.77
2022-09-15T21:24:19.550Z,1.50
2022-09-15T21:27:18.184Z,1.40
2022-09-15T21:29:54.077Z,1.77
2022-09-15T21:32:25.817Z,1.20
2022-09-15T21:35:01.941Z,1.83
2022-09-15T21:37:30.504Z,1.40
2022-09-15T21:40:07.045Z,1.60
2022-09-15T21:42:35.691Z,1.70
2022-09-15T21:45:12.096Z,1.40
2022-09-15T21:47:40.623Z,1.60
2022-09-15T21:50:16.145Z,1.67
2022-09-15T21:52:47.523Z,1.40
2022-09-15T21:55:24.098Z,1.80
2022-09-15T21:57:52.639Z,1.50
2022-09-15T22:00:28.193Z,1.63
2022-09-15T22:02:56.761Z,1.40
2022-09-15T22:05:32.088Z,1.67
2022-09-15T22:08:04.217Z,1.60
2022-09-15T22:10:42.178Z,1.27
2022-09-15T22:13:12.787Z,1.60
2022-09-15T22:15:48.113Z,1.43
2022-09-15T22:18:16.517Z,1.80
2022-09-15T22:20:51.201Z,1.60
2022-09-15T22:23:19.621Z,1.80
2022-09-15T22:26:03.043Z,1.70
2022-09-15T22:28:39.512Z,1.47
2022-09-15T22:31:17.206Z,1.83
2022-09-15T22:33:46.346Z,1.50
2022-09-15T22:36:28.112Z,1.83
2022-09-15T22:39:03.590Z,1.70
2022-09-15T22:41:41.185Z,1.53
2022-09-15T22:44:19.355Z,1.90
2022-09-15T22:46:56.127Z,1.73
2022-09-15T22:49:25.578Z,1.70
2022-09-15T22:52:01.073Z,1.60
2022-09-15T22:54:29.589Z,1.80
2022-09-15T22:57:06.113Z,1.97
2022-09-15T22:59:34.491Z,1.90
2022-09-15T23:02:11.223Z,1.57
2022-09-15T23:04:50.757Z,1.70
2022-09-15T23:07:26.251Z,1.47
2022-09-15T23:09:54.517Z,1.50
2022-09-15T23:12:31.249Z,1.53
2022-09-15T23:15:03.921Z,1.50
2022-09-15T23:17:39.279Z,1.57
2022-09-15T23:20:08.453Z,1.70
2022-09-15T23:22:43.105Z,1.43
2022-09-15T23:25:18.927Z,1.43
2022-09-15T23:27:56.273Z,1.30
2022-09-15T23:30:24.611Z,1.43
2022-09-15T23:32:59.265Z,1.67
2022-09-15T23:35:27.930Z,1.50
2022-09-15T23:38:07.179Z,1.67
2022-09-15T23:40:35.751Z,1.77
2022-09-15T23:43:14.251Z,1.50
2022-09-15T23:45:43.925Z,1.80
2022-09-15T23:48:20.399Z,1.80
2022-09-15T23:50:49.287Z,1.70
2022-09-15T23:53:25.107Z,1.80
2022-09-15T23:55:53.940Z,1.80
2022-09-15T23:58:30.188Z,1.60
